createdAt,value
2018-05-11T00:01:02.217Z,89.88
2018-05-11T00:03:30.948Z,89.82
2018-05-11T00:05:59.683Z,89.96
2018-05-11T00:08:29.681Z,90.12
2018-05-11T00:10:58.757Z,90.03
2018-05-11T00:13:28.494Z,90.09
2018-05-11T00:15:57.957Z,89.96
2018-05-11T00:18:26.859Z,89.63
2018-05-11T00:20:55.976Z,89.37
2018-05-11T00:23:24.785Z,89.64
2018-05-11T00:25:54.652Z,89.70
2018-05-11T00:28:23.478Z,89.83
2018-05-11T00:30:52.550Z,89.81
2018-05-11T00:33:21.768Z,89.96
2018-05-11T00:35:50.683Z,90.01
2018-05-11T00:38:19.214Z,89.86
2018-05-11T00:40:48.354Z,89.85
2018-05-11T00:43:19.431Z,89.97
2018-05-11T00:45:48.882Z,90.04
2018-05-11T00:48:17.455Z,90.32
2018-05-11T00:50:46.975Z,90.42
2018-05-11T00:53:15.663Z,90.44
2018-05-11T00:55:52.056Z,90.34
2018-05-11T00:58:20.638Z,90.49
2018-05-11T01:00:49.860Z,90.46
2018-05-11T01:03:18.615Z,90.48
2018-05-11T01:05:47.902Z,90.55
2018-05-11T01:08:17.882Z,90.51
2018-05-11T01:10:46.584Z,90.50
2018-05-11T01:13:15.308Z,90.62
2018-05-11T01:15:44.331Z,90.62
2018-05-11T01:18:12.971Z,90.56
2018-05-11T01:20:41.590Z,90.59
2018-05-11T01:23:10.172Z,90.27
2018-05-11T01:25:39.054Z,90.28
2018-05-11T01:28:08.546Z,90.40
2018-05-11T01:30:37.875Z,90.54
2018-05-11T01:33:06.831Z,90.65
2018-05-11T01:35:35.637Z,90.69
2018-05-11T01:38:04.860Z,90.61
2018-05-11T01:40:33.995Z,90.43
2018-05-11T01:43:02.551Z,90.37
2018-05-11T01:45:31.336Z,90.36
2018-05-11T01:48:00.828Z,90.34
2018-05-11T01:50:29.813Z,90.22
2018-05-11T01:52:58.489Z,90.28
2018-05-11T01:55:27.982Z,90.37
2018-05-11T01:57:56.871Z,90.48
2018-05-11T02:00:25.878Z,90.56
2018-05-11T02:02:54.546Z,90.61
2018-05-11T02:05:23.504Z,91.43
2018-05-11T02:07:54.138Z,91.14
2018-05-11T02:10:24.914Z,91.83
2018-05-11T02:12:55.263Z,91.60
2018-05-11T02:15:24.057Z,91.43
2018-05-11T02:17:52.564Z,91.32
2018-05-11T02:20:21.685Z,91.48
2018-05-11T02:22:50.382Z,92.27
2018-05-11T02:25:21.270Z,92.97
2018-05-11T02:27:51.792Z,92.82
2018-05-11T02:30:20.720Z,92.35
2018-05-11T02:32:50.154Z,92.36
2018-05-11T02:35:19.150Z,92.36
2018-05-11T02:37:48.515Z,92.47
2018-05-11T02:40:18.275Z,92.54
2018-05-11T02:42:46.799Z,92.48
2018-05-11T02:45:17.325Z,92.32
2018-05-11T02:47:45.950Z,92.15
2018-05-11T02:50:15.275Z,92.04
2018-05-11T02:52:44.095Z,91.85
2018-05-11T02:55:12.849Z,91.87
2018-05-11T02:57:42.364Z,91.78
2018-05-11T03:00:10.879Z,91.95
2018-05-11T03:02:40.651Z,91.88
2018-05-11T03:05:10.121Z,92.05
2018-05-11T03:07:39.629Z,92.04
2018-05-11T03:10:08.593Z,91.97
2018-05-11T03:12:37.993Z,92.13
2018-05-11T03:15:06.699Z,92.21
2018-05-11T03:17:36.370Z,92.14
2018-05-11T03:20:05.026Z,92.12
2018-05-11T03:22:34.605Z,92.07
2018-05-11T03:25:03.145Z,92.15
2018-05-11T03:27:32.074Z,92.21
2018-05-11T03:30:00.943Z,92.00
2018-05-11T03:32:30.658Z,92.13
2018-05-11T03:35:01.360Z,92.02
2018-05-11T03:37:30.112Z,92.05
2018-05-11T03:39:59.447Z,92.15
2018-05-11T03:42:28.350Z,92.14
2018-05-11T03:44:57.253Z,91.82
2018-05-11T03:47:25.887Z,92.08
2018-05-11T03:49:55.003Z,91.94
2018-05-11T03:52:23.657Z,92.13
2018-05-11T03:54:52.476Z,91.90
2018-05-11T03:57:22.172Z,92.25
2018-05-11T03:59:51.746Z,92.40
2018-05-11T04:02:38.841Z,92.54
2018-05-11T04:05:25.569Z,92.59
2018-05-11T04:08:13.269Z,93.06
2018-05-11T04:10:43.352Z,93.26
2018-05-11T04:13:13.725Z,93.36
2018-05-11T04:15:42.530Z,93.48
2018-05-11T04:18:12.082Z,92.98
2018-05-11T04:20:41.438Z,92.71
2018-05-11T04:23:10.635Z,92.42
2018-05-11T04:25:39.456Z,92.30
2018-05-11T04:28:09.752Z,92.47
2018-05-11T04:30:39.168Z,92.10
2018-05-11T04:33:07.898Z,92.28
2018-05-11T04:35:37.079Z,91.83
2018-05-11T04:38:05.729Z,91.67
2018-05-11T04:40:34.418Z,90.82
2018-05-11T04:43:03.545Z,90.70
2018-05-11T04:45:33.858Z,91.11
2018-05-11T04:48:03.692Z,90.91
2018-05-11T04:50:32.763Z,90.67
2018-05-11T04:53:01.746Z,90.78
2018-05-11T04:55:31.054Z,90.38
2018-05-11T04:58:00.390Z,90.29
2018-05-11T05:00:29.190Z,90.26
2018-05-11T05:03:00.373Z,90.37
2018-05-11T05:05:29.996Z,90.52
2018-05-11T05:07:58.861Z,89.50
2018-05-11T05:10:29.353Z,89.58
2018-05-11T05:13:00.398Z,89.06
2018-05-11T05:15:30.352Z,89.69
2018-05-11T05:17:59.349Z,89.27
2018-05-11T05:20:27.983Z,88.52
2018-05-11T05:22:57.752Z,88.02
2018-05-11T05:25:28.371Z,88.27
2018-05-11T05:27:58.516Z,87.72
2018-05-11T05:30:27.841Z,86.74
2018-05-11T05:32:57.126Z,86.25
2018-05-11T05:35:26.278Z,86.15
2018-05-11T05:37:55.737Z,85.52
2018-05-11T05:40:25.703Z,83.41
2018-05-11T05:42:56.426Z,83.22
2018-05-11T05:45:25.004Z,82.80
2018-05-11T05:47:54.120Z,82.24
2018-05-11T05:50:23.177Z,82.16
2018-05-11T05:52:52.695Z,82.03
2018-05-11T05:55:22.237Z,81.83
2018-05-11T05:57:51.770Z,80.54
2018-05-11T06:00:20.489Z,79.96
2018-05-11T06:02:49.472Z,78.43
2018-05-11T06:05:18.951Z,78.58
2018-05-11T06:07:48.654Z,78.05
2018-05-11T06:10:17.741Z,77.94
2018-05-11T06:12:47.223Z,77.39
2018-05-11T06:15:15.787Z,75.96
2018-05-11T06:17:44.412Z,76.19
2018-05-11T06:20:13.078Z,74.38
2018-05-11T06:22:43.004Z,73.84
2018-05-11T06:25:13.111Z,72.35
2018-05-11T06:27:42.321Z,69.93
2018-05-11T06:30:11.535Z,68.49
2018-05-11T06:32:41.709Z,65.13
2018-05-11T06:35:11.839Z,62.95
2018-05-11T06:37:41.221Z,60.42
2018-05-11T06:40:12.197Z,59.31
2018-05-11T06:42:42.332Z,59.79
2018-05-11T06:45:11.846Z,59.01
2018-05-11T06:47:41.470Z,58.47
2018-05-11T06:50:11.828Z,58.60
2018-05-11T06:52:41.443Z,55.63
2018-05-11T06:55:18.106Z,54.87
2018-05-11T06:57:47.366Z,54.42
2018-05-11T07:00:16.373Z,55.94
2018-05-11T07:02:45.800Z,53.41
2018-05-11T07:05:15.005Z,51.71
2018-05-11T07:07:44.111Z,52.40
2018-05-11T07:10:12.796Z,51.15
2018-05-11T07:12:43.749Z,49.82
2018-05-11T07:15:12.748Z,48.63
2018-05-11T07:17:41.942Z,49.31
2018-05-11T07:20:11.461Z,50.00
2018-05-11T07:22:41.337Z,50.14
2018-05-11T07:25:11.986Z,49.36
2018-05-11T07:27:41.452Z,49.60
2018-05-11T07:30:10.100Z,48.34
2018-05-11T07:32:38.862Z,47.75
2018-05-11T07:35:07.769Z,47.16
2018-05-11T07:37:37.164Z,47.26
2018-05-11T07:40:06.236Z,46.01
2018-05-11T07:42:34.986Z,46.86
2018-05-11T07:45:03.925Z,45.62
2018-05-11T07:47:32.831Z,44.39
2018-05-11T07:50:04.509Z,44.25
2018-05-11T07:52:34.132Z,42.79
2018-05-11T07:55:04.033Z,43.05
2018-05-11T07:57:32.533Z,42.75
2018-05-11T08:00:01.518Z,42.91
2018-05-11T08:02:30.111Z,42.08
2018-05-11T08:04:59.832Z,42.80
2018-05-11T08:07:28.996Z,43.30
2018-05-11T08:09:58.604Z,41.16
2018-05-11T08:12:27.297Z,41.57
2018-05-11T08:14:57.551Z,41.86
2018-05-11T08:17:26.880Z,40.80
2018-05-11T08:19:56.839Z,40.27
2018-05-11T08:22:26.800Z,39.26
2018-05-11T08:24:57.154Z,39.32
2018-05-11T08:27:27.127Z,38.26
2018-05-11T08:29:56.201Z,36.24
2018-05-11T08:32:25.682Z,38.25
2018-05-11T08:34:55.077Z,37.21
2018-05-11T08:37:24.107Z,35.96
2018-05-11T08:39:52.878Z,35.21
2018-05-11T08:42:23.245Z,35.43
2018-05-11T08:45:00.049Z,35.93
2018-05-11T08:47:31.546Z,37.47
2018-05-11T08:50:02.304Z,37.33
2018-05-11T08:52:31.007Z,37.16
2018-05-11T08:55:03.035Z,34.49
2018-05-11T09:00:13.144Z,33.12
2018-05-11T09:02:45.584Z,32.32
2018-05-11T09:05:16.284Z,32.05
2018-05-11T09:07:48.077Z,31.76
2018-05-11T09:10:18.821Z,31.54
2018-05-11T09:12:49.951Z,31.69
2018-05-11T09:15:19.906Z,31.33
2018-05-11T09:17:48.995Z,29.43
2018-05-11T09:20:18.447Z,30.84
2018-05-11T09:22:49.335Z,28.99
2018-05-11T09:25:21.078Z,30.29
2018-05-11T09:27:54.271Z,29.18
2018-05-11T09:30:24.828Z,29.81
2018-05-11T09:32:54.765Z,28.91
2018-05-11T09:35:30.023Z,29.16
2018-05-11T09:37:59.733Z,28.67
2018-05-11T09:40:28.448Z,28.98
2018-05-11T09:42:57.796Z,28.52
2018-05-11T09:45:26.709Z,29.09
2018-05-11T09:47:55.712Z,28.29
2018-05-11T09:50:25.821Z,27.90
2018-05-11T09:52:55.161Z,28.25
2018-05-11T09:55:24.727Z,25.71
2018-05-11T09:57:54.072Z,26.06
2018-05-11T10:00:26.789Z,25.82
2018-05-11T10:02:57.390Z,25.06
2018-05-11T10:05:27.053Z,23.82
2018-05-11T10:07:57.047Z,24.89
2018-05-11T10:10:26.698Z,26.43
2018-05-11T10:12:56.181Z,28.43
2018-05-11T10:15:26.271Z,25.87
2018-05-11T10:17:56.441Z,26.63
2018-05-11T10:20:25.091Z,25.20
2018-05-11T10:22:53.816Z,24.58
2018-05-11T10:25:23.478Z,26.30
2018-05-11T10:27:54.381Z,28.50
2018-05-11T10:30:24.275Z,27.42
2018-05-11T10:32:53.950Z,28.08
2018-05-11T10:35:24.244Z,27.13
2018-05-11T10:37:53.316Z,26.34
2018-05-11T10:40:22.498Z,25.88
2018-05-11T10:42:51.659Z,24.44
2018-05-11T10:45:20.542Z,23.56
2018-05-11T10:47:49.771Z,25.77
2018-05-11T10:50:19.006Z,28.08
2018-05-11T10:52:48.839Z,27.29
2018-05-11T10:55:18.561Z,27.93
2018-05-11T10:57:49.033Z,25.97
2018-05-11T11:00:17.805Z,24.55
2018-05-11T11:02:47.837Z,25.49
2018-05-11T11:05:18.169Z,27.98
2018-05-11T11:07:46.954Z,26.34
2018-05-11T11:10:16.259Z,27.03
2018-05-11T11:12:46.853Z,25.54
2018-05-11T11:15:17.262Z,24.16
2018-05-11T11:17:45.860Z,24.59
2018-05-11T11:20:15.002Z,25.12
2018-05-11T11:22:44.464Z,27.41
2018-05-11T11:25:14.138Z,28.60
2018-05-11T11:27:42.933Z,30.06
2018-05-11T11:30:12.025Z,31.24
2018-05-11T11:32:42.488Z,28.77
2018-05-11T11:35:12.733Z,27.25
2018-05-11T11:37:42.901Z,27.62
2018-05-11T11:40:11.800Z,27.34
2018-05-11T11:42:41.912Z,30.40
2018-05-11T11:45:11.485Z,32.82
2018-05-11T11:47:40.971Z,34.83
2018-05-11T11:50:11.325Z,37.27
2018-05-11T11:52:40.046Z,38.59
2018-05-11T11:55:17.954Z,39.40
2018-05-11T11:57:46.867Z,40.55
2018-05-11T12:00:17.080Z,43.16
2018-05-11T12:02:46.584Z,44.57
2018-05-11T12:05:15.731Z,44.97
2018-05-11T12:10:52.739Z,46.81
2018-05-11T12:13:22.448Z,47.97
2018-05-11T12:15:53.163Z,48.83
2018-05-11T12:18:21.839Z,48.11
2018-05-11T12:20:50.404Z,49.29
2018-05-11T12:23:19.845Z,50.83
2018-05-11T12:25:48.503Z,53.01
2018-05-11T12:28:17.049Z,55.21
2018-05-11T12:30:45.704Z,60.67
2018-05-11T12:33:14.366Z,62.28
2018-05-11T12:35:42.964Z,64.83
2018-05-11T12:38:11.623Z,69.51
2018-05-11T12:40:41.021Z,67.54
2018-05-11T12:43:09.969Z,70.38
2018-05-11T12:45:38.745Z,70.75
2018-05-11T12:48:07.380Z,69.81
2018-05-11T12:50:36.690Z,69.44
2018-05-11T12:53:05.920Z,68.75
2018-05-11T12:55:35.821Z,69.80
2018-05-11T12:58:04.665Z,68.13
2018-05-11T13:00:33.434Z,63.97
2018-05-11T13:03:02.067Z,65.25
2018-05-11T13:05:31.121Z,66.34
2018-05-11T13:07:59.859Z,63.76
2018-05-11T13:10:28.591Z,64.59
2018-05-11T13:13:05.875Z,63.18
2018-05-11T13:15:35.755Z,62.93
2018-05-11T13:18:04.444Z,60.98
2018-05-11T13:20:33.314Z,59.65
2018-05-11T13:23:02.083Z,59.46
2018-05-11T13:25:30.783Z,56.19
2018-05-11T13:28:10.944Z,55.69
2018-05-11T13:30:40.583Z,54.70
2018-05-11T13:33:10.729Z,52.13
2018-05-11T13:35:39.404Z,49.66
2018-05-11T13:38:08.706Z,46.93
2018-05-11T13:40:52.187Z,44.89
2018-05-11T13:43:22.015Z,45.53
2018-05-11T13:45:53.415Z,44.37
2018-05-11T13:48:23.715Z,44.20
2018-05-11T13:50:53.217Z,41.18
2018-05-11T13:53:21.896Z,39.30
2018-05-11T13:55:51.131Z,39.23
2018-05-11T13:58:19.722Z,38.61
2018-05-11T14:00:48.419Z,37.76
2018-05-11T14:03:18.177Z,37.20
2018-05-11T14:05:46.940Z,38.18
2018-05-11T14:08:15.847Z,38.80
2018-05-11T14:10:45.398Z,38.31
2018-05-11T14:13:14.907Z,37.65
2018-05-11T14:15:44.040Z,37.28
2018-05-11T14:18:14.663Z,38.35
2018-05-11T14:20:43.347Z,38.77
2018-05-11T14:23:11.931Z,36.29
2018-05-11T14:25:40.526Z,35.11
2018-05-11T14:28:09.418Z,35.58
2018-05-11T14:30:38.800Z,35.33
2018-05-11T14:33:07.432Z,34.06
2018-05-11T14:35:36.108Z,29.81
2018-05-11T14:38:05.249Z,32.53
2018-05-11T14:40:34.009Z,33.10
2018-05-11T14:43:03.886Z,31.49
2018-05-11T14:45:32.509Z,31.49
2018-05-11T14:48:02.648Z,33.42
2018-05-11T14:50:32.453Z,31.73
2018-05-11T14:53:01.204Z,31.57
2018-05-11T14:55:29.885Z,30.76
2018-05-11T14:57:59.285Z,32.58
2018-05-11T15:00:28.069Z,32.83
2018-05-11T15:02:56.780Z,32.66
2018-05-11T15:05:26.247Z,32.20
2018-05-11T15:07:54.863Z,32.34
2018-05-11T15:10:24.710Z,33.82
2018-05-11T15:12:54.556Z,35.76
2018-05-11T15:15:25.000Z,37.25
2018-05-11T15:17:54.248Z,35.58
2018-05-11T15:20:23.466Z,35.93
2018-05-11T15:22:52.062Z,36.85
2018-05-11T15:25:20.876Z,35.97
2018-05-11T15:27:49.766Z,35.61
2018-05-11T15:30:19.433Z,35.37
2018-05-11T15:32:48.063Z,35.88
2018-05-11T15:35:16.786Z,36.18
2018-05-11T15:37:45.564Z,38.20
2018-05-11T15:40:14.362Z,38.77
2018-05-11T15:42:43.423Z,40.08
2018-05-11T15:45:12.996Z,40.45
2018-05-11T15:47:42.216Z,41.71
2018-05-11T15:50:11.595Z,42.71
2018-05-11T15:52:40.865Z,43.77
2018-05-11T15:55:10.273Z,44.78
2018-05-11T15:57:39.731Z,46.47
2018-05-11T16:00:08.304Z,46.45
2018-05-11T16:02:37.636Z,48.04
2018-05-11T16:05:06.358Z,49.32
2018-05-11T16:07:35.231Z,49.55
2018-05-11T16:10:04.722Z,50.50
2018-05-11T16:12:34.824Z,52.10
2018-05-11T16:15:04.205Z,51.70
2018-05-11T16:17:33.897Z,52.37
2018-05-11T16:20:04.778Z,52.18
2018-05-11T16:22:33.810Z,52.82
2018-05-11T16:25:03.593Z,52.18
2018-05-11T16:27:32.484Z,52.16
2018-05-11T16:30:02.693Z,52.49
2018-05-11T16:32:32.368Z,51.80
2018-05-11T16:35:01.287Z,51.89
2018-05-11T16:37:30.264Z,52.54
2018-05-11T16:40:00.447Z,52.48
2018-05-11T16:42:30.149Z,51.94
2018-05-11T16:44:58.819Z,50.33
2018-05-11T16:47:27.951Z,50.89
2018-05-11T16:50:00.290Z,50.11
2018-05-11T16:52:29.537Z,53.17
2018-05-11T16:54:59.709Z,52.38
2018-05-11T16:57:28.704Z,51.53
2018-05-11T16:59:58.276Z,51.56
2018-05-11T17:02:26.940Z,51.63
2018-05-11T17:04:56.538Z,52.14
2018-05-11T17:07:25.564Z,52.78
2018-05-11T17:09:54.902Z,53.72
2018-05-11T17:12:24.477Z,54.03
2018-05-11T17:14:53.572Z,55.21
2018-05-11T17:17:22.819Z,56.11
2018-05-11T17:19:51.540Z,56.68
2018-05-11T17:22:20.555Z,57.44
2018-05-11T17:24:49.382Z,58.06
2018-05-11T17:27:18.529Z,58.50
2018-05-11T17:29:47.179Z,59.00
2018-05-11T17:32:15.823Z,59.25
2018-05-11T17:34:44.953Z,60.01
2018-05-11T17:37:13.895Z,60.01
2018-05-11T17:39:43.102Z,60.34
2018-05-11T17:42:12.664Z,60.61
2018-05-11T17:44:43.231Z,58.48
2018-05-11T17:47:12.445Z,58.89
2018-05-11T17:49:41.810Z,60.48
2018-05-11T17:52:11.172Z,60.56
2018-05-11T17:54:39.960Z,60.55
2018-05-11T17:57:08.812Z,60.04
2018-05-11T17:59:37.541Z,60.73
2018-05-11T18:02:06.230Z,60.98
2018-05-11T18:04:34.941Z,61.19
2018-05-11T18:07:03.828Z,61.36
2018-05-11T18:09:32.629Z,61.73
2018-05-11T18:12:01.624Z,61.77
2018-05-11T18:14:30.463Z,61.14
2018-05-11T18:16:59.372Z,61.91
2018-05-11T18:19:28.781Z,62.46
2018-05-11T18:21:58.085Z,62.74
2018-05-11T18:24:27.520Z,63.87
2018-05-11T18:26:56.244Z,64.87
2018-05-11T18:29:24.799Z,65.74
2018-05-11T18:31:53.617Z,66.06
2018-05-11T18:34:22.392Z,66.64
2018-05-11T18:36:51.030Z,66.12
2018-05-11T18:39:19.743Z,65.98
2018-05-11T18:41:50.252Z,66.47
2018-05-11T18:44:19.568Z,65.82
2018-05-11T18:46:48.786Z,66.07
2018-05-11T18:49:19.676Z,66.02
2018-05-11T18:51:49.623Z,66.88
2018-05-11T18:54:19.559Z,67.27
2018-05-11T18:56:47.894Z,67.25
2018-05-11T18:59:16.663Z,67.98
2018-05-11T19:01:45.429Z,68.53
2018-05-11T19:04:14.195Z,68.83
2018-05-11T19:06:43.717Z,68.67
2018-05-11T19:09:13.510Z,68.31
2018-05-11T19:11:42.211Z,68.49
2018-05-11T19:14:11.037Z,68.98
2018-05-11T19:16:39.742Z,69.29
2018-05-11T19:19:08.766Z,69.95
2018-05-11T19:21:38.512Z,69.12
2018-05-11T19:24:07.706Z,68.23
2018-05-11T19:26:36.502Z,68.84
2018-05-11T19:29:05.159Z,69.43
2018-05-11T19:31:34.840Z,69.84
2018-05-11T19:34:03.982Z,69.81
2018-05-11T19:36:32.879Z,70.04
2018-05-11T19:39:02.302Z,70.64
2018-05-11T19:41:31.046Z,71.08
2018-05-11T19:43:59.862Z,70.92
2018-05-11T19:46:28.724Z,70.98
2018-05-11T19:48:57.480Z,71.24
2018-05-11T19:51:28.781Z,71.60
2018-05-11T19:54:04.788Z,71.33
2018-05-11T19:56:33.767Z,72.52
2018-05-11T19:59:03.712Z,72.91
2018-05-11T20:01:34.055Z,72.36
2018-05-11T20:04:03.801Z,72.17
2018-05-11T20:06:32.722Z,72.12
2018-05-11T20:09:02.533Z,72.42
2018-05-11T20:11:35.643Z,72.78
2018-05-11T20:14:06.609Z,73.35
2018-05-11T20:16:36.150Z,73.96
2018-05-11T20:19:05.220Z,74.17
2018-05-11T20:21:34.671Z,74.49
2018-05-11T20:24:04.835Z,75.47
2018-05-11T20:26:36.490Z,75.87
2018-05-11T20:29:05.739Z,76.31
2018-05-11T20:31:34.579Z,76.67
2018-05-11T20:34:03.721Z,76.96
2018-05-11T20:36:34.159Z,77.26
2018-05-11T20:39:05.465Z,77.75
2018-05-11T20:41:35.922Z,78.11
2018-05-11T20:44:06.541Z,78.18
2018-05-11T20:46:35.937Z,78.50
2018-05-11T20:49:04.838Z,78.83
2018-05-11T20:51:34.524Z,79.00
2018-05-11T20:54:03.820Z,79.42
2018-05-11T20:56:33.357Z,79.78
2018-05-11T20:59:03.816Z,80.27
2018-05-11T21:01:33.691Z,80.43
2018-05-11T21:04:03.750Z,80.57
2018-05-11T21:06:33.151Z,80.86
2018-05-11T21:09:03.133Z,81.27
2018-05-11T21:11:32.095Z,81.46
2018-05-11T21:14:02.368Z,81.56
2018-05-11T21:16:32.003Z,81.67
2018-05-11T21:19:01.211Z,81.86
2018-05-11T21:21:31.062Z,81.83
2018-05-11T21:24:00.097Z,81.84
2018-05-11T21:26:30.323Z,81.97
2018-05-11T21:29:01.884Z,82.02
2018-05-11T21:31:30.763Z,81.92
2018-05-11T21:34:01.572Z,81.81
2018-05-11T21:36:30.356Z,81.88
2018-05-11T21:38:59.330Z,82.32
2018-05-11T21:41:28.624Z,82.75
2018-05-11T21:43:58.357Z,83.02
2018-05-11T21:46:26.999Z,82.47
2018-05-11T21:48:56.074Z,82.69
2018-05-11T21:51:25.404Z,82.80
2018-05-11T21:53:56.036Z,82.85
2018-05-11T21:56:26.822Z,83.05
2018-05-11T21:58:55.613Z,83.31
2018-05-11T22:01:24.864Z,83.49
2018-05-11T22:03:53.851Z,83.58
2018-05-11T22:06:23.861Z,83.68
2018-05-11T22:08:54.163Z,83.84
2018-05-11T22:11:22.950Z,83.85
2018-05-11T22:13:52.023Z,84.01
2018-05-11T22:16:21.975Z,84.42
2018-05-11T22:18:51.207Z,84.64
2018-05-11T22:21:20.211Z,84.67
2018-05-11T22:23:50.646Z,84.95
2018-05-11T22:26:19.867Z,84.80
2018-05-11T22:28:48.604Z,84.75
2018-05-11T22:31:18.650Z,84.87
2018-05-11T22:33:47.422Z,85.26
2018-05-11T22:36:16.330Z,85.75
2018-05-11T22:38:45.055Z,86.17
2018-05-11T22:41:14.052Z,86.51
2018-05-11T22:43:42.853Z,86.66
2018-05-11T22:46:11.522Z,86.75
2018-05-11T22:48:40.826Z,86.95
2018-05-11T22:51:10.633Z,86.87
2018-05-11T22:53:40.684Z,86.87
2018-05-11T22:56:09.555Z,86.91
2018-05-11T22:58:39.937Z,86.93
2018-05-11T23:01:09.480Z,86.79
2018-05-11T23:03:38.647Z,86.89
2018-05-11T23:06:07.336Z,87.16
2018-05-11T23:08:35.966Z,87.10
2018-05-11T23:11:04.845Z,86.99
2018-05-11T23:13:34.575Z,87.06
2018-05-11T23:16:05.210Z,87.06
2018-05-11T23:18:35.013Z,87.11
2018-05-11T23:21:04.245Z,87.02
2018-05-11T23:23:33.025Z,87.11
2018-05-11T23:26:01.683Z,87.25
2018-05-11T23:28:30.313Z,87.16
2018-05-11T23:30:59.636Z,87.18
2018-05-11T23:33:28.960Z,87.33
2018-05-11T23:35:58.315Z,87.35
2018-05-11T23:38:26.938Z,87.32
2018-05-11T23:40:55.522Z,87.77
2018-05-11T23:43:24.061Z,87.95
2018-05-11T23:45:52.692Z,87.96
2018-05-11T23:48:22.176Z,88.26
2018-05-11T23:50:50.968Z,88.36
2018-05-11T23:53:20.191Z,88.45
2018-05-11T23:55:48.901Z,88.51
2018-05-11T23:58:18.412Z,88.51
